North Palm Beach, FL (33408)

5:25 AM EDT on August 31, 2015 (GMT -0400)
Juno Isles | | Change Station
CLOSE
Current Station
Personal Weather Station
Location: N Palm Beach, FL
Elevation: 39 ft
Nearby Weather Stations
Active Advisory: Flood Watch / Flood Statement Active Notice: Record Report

Elev 39 ft 26.86 °N, 80.06 °W | Updated 4 minutes ago

Partly Cloudy
Partly Cloudy
79.5 °F
Feels Like 83 °F
N
0.0
Wind Variable Wind from ESE

Today
High -- | Low -- °F
--% Chance of Precip.
Yesterday
High -- | Low -- °F
Precip. -- in
6:59 AM 7:41 PM
Waning Gibbous, 96% visible
Pressure 30.00 in
Visibility 10.0 miles
Clouds Few 2200 ft
Scattered Clouds 20000 ft
Heat Index 83 °F
Dew Point 73 °F
Humidity 81%
Rainfall 0.00 in
Snow Depth Not available.
UV 0 out of 12
Pollen .60 out of 12
Air Quality Not available.
Flu Activity Not available.
METAR KPBI 310853Z 16003KT 10SM FEW022 SCT200 27/23 A3000 RMK AO2 SLP158 T02670233 56011
Pressure 30.00 in
Visibility 10.0 miles
Clouds Few 2200 ft
Scattered Clouds 20000 ft
Heat Index 83 °F
Dew Point 73 °F
Humidity 81%
Rainfall 0.00 in
Snow Depth Not available.
UV 0 out of 12
Pollen .60 out of 12
Air Quality Not available.
Flu Activity Not available.
METAR KPBI 310853Z 16003KT 10SM FEW022 SCT200 27/23 A3000 RMK AO2 SLP158 T02670233 56011

10-Day Weather Forecast

×

Almanac

Astronomy

Aug. 31, 2015 Rise Set
Actual Time
Civil Twilight
Nautical Twilight
Astronomical Twilight
Moon
Length of Visible Light
Length of Day
Tomorrow will be .
, % of the Moon is Illuminated

Today's Extremes

State Highs State Lows

Community

WunderPhotos

Upload Photos

1,851,227 photos uploaded!

WunderBlogs® & News

Nearby

Air Quality

  Air Quality AQ Index Pollutant
Not available.

Snow Depth

Station Depth Elevation

Earthquake Activity

City Distance Mag. Time & Date
Minimum magnitude displayed is 2.5.

Coastal Water Temperatures

Place Temperature

Stations

Nearby Weather Stations

Station Location Temp. Windchill Dew Point Humidity Wind Precip. Elev Updated Type
                   
Flood Watch / Flood Statement
Statement as of 5:20 AM EDT on August 31, 2015

... High rip current risk is cancelled...

The onshore wind has diminished. Therefore, the National Weather
Service in Miami has cancelled the high rip current risk. However,
a moderate risk of rip currents persists at the Atlantic beaches.
$$


Http://www.Weather.Gov/Miami